Time;durP1;ratioP1;P1;durP2;ratioP2;P2;SDS_P1;SDS_P2;PMS_P1;PMS_P2;Temp;Humidity;BMP_temperature;BMP_pressure;BME280_temperature;BME280_humidity;BME280_pressure;Samples;Min_cycle;Max_cycle;Signal;HPM_P1;HPM_P2
2023/02/12 00:01:13;;;;;;;20.20;11.00;;;7.80;99.90;;;;;;4932811;29;20221;-81
2023/02/12 00:03:41;;;;;;;18.47;11.33;;;7.80;99.90;;;;;;4931672;29;20288;-81
2023/02/12 00:06:09;;;;;;;15.07;10.27;;;7.80;99.90;;;;;;4932962;29;20320;-82
2023/02/12 00:08:38;;;;;;;16.10;10.13;;;7.80;99.90;;;;;;4950445;29;20498;-83
2023/02/12 00:11:10;;;;;;;14.37;8.60;;;7.80;99.90;;;;;;4951459;29;20299;-83
2023/02/12 00:13:38;;;;;;;14.57;9.47;;;7.80;99.90;;;;;;4937647;28;20292;-81
2023/02/12 00:16:06;;;;;;;11.83;9.03;;;7.80;99.90;;;;;;4931768;29;20202;-83
2023/02/12 00:18:33;;;;;;;12.53;8.67;;;7.80;99.90;;;;;;4931642;29;20205;-83
2023/02/12 00:21:01;;;;;;;14.30;10.27;;;7.80;99.90;;;;;;4931865;29;20206;-83
2023/02/12 00:23:28;;;;;;;10.50;7.70;;;7.80;99.90;;;;;;4933086;29;20672;-83
2023/02/12 00:25:57;;;;;;;12.57;8.57;;;7.80;99.90;;;;;;4931802;29;20226;-82
2023/02/12 00:28:24;;;;;;;15.23;8.73;;;7.80;99.90;;;;;;4930922;29;20292;-82
2023/02/12 00:30:51;;;;;;;12.47;8.90;;;7.80;99.90;;;;;;4931083;29;20901;-83
2023/02/12 00:33:18;;;;;;;11.97;8.50;;;7.80;99.90;;;;;;4930572;29;20293;-82
2023/02/12 00:35:44;;;;;;;13.30;9.33;;;7.80;99.90;;;;;;4930432;29;20603;-79
2023/02/12 00:38:11;;;;;;;14.23;9.43;;;7.80;99.90;;;;;;4949213;29;20219;-81
2023/02/12 00:40:38;;;;;;;14.87;9.60;;;7.80;99.90;;;;;;4949020;29;20216;-81
2023/02/12 00:43:07;;;;;;;18.10;9.97;;;7.80;99.90;;;;;;4949056;29;20288;-80
2023/02/12 00:45:33;;;;;;;18.73;11.10;;;7.90;99.90;;;;;;4947482;29;20235;-82
2023/02/12 00:48:00;;;;;;;19.63;11.30;;;7.80;99.90;;;;;;4948435;28;20244;-81
2023/02/12 00:50:27;;;;;;;17.23;10.57;;;7.90;99.90;;;;;;4935769;29;20217;-82
2023/02/12 00:52:54;;;;;;;19.77;11.27;;;7.90;99.90;;;;;;4927804;29;20248;-81
2023/02/12 00:55:21;;;;;;;17.63;10.60;;;7.90;99.90;;;;;;4929373;29;20206;-81
2023/02/12 00:57:48;;;;;;;18.90;12.20;;;7.90;99.90;;;;;;4929618;29;20317;-81
2023/02/12 01:00:17;;;;;;;17.93;11.03;;;7.90;99.90;;;;;;4947973;29;20216;-81
2023/02/12 01:02:44;;;;;;;16.00;10.23;;;7.80;99.90;;;;;;4948489;28;20859;-80
2023/02/12 01:05:11;;;;;;;13.07;9.17;;;7.90;99.90;;;;;;4948297;29;20231;-80
2023/02/12 01:07:39;;;;;;;18.63;10.43;;;7.80;99.90;;;;;;4933238;29;20217;-81
2023/02/12 01:10:08;;;;;;;11.23;8.63;;;7.80;99.90;;;;;;4929185;29;20210;-79
2023/02/12 01:12:35;;;;;;;12.93;9.27;;;7.70;99.90;;;;;;4929130;29;20613;-82
2023/02/12 01:15:02;;;;;;;13.33;8.40;;;7.70;99.90;;;;;;4928037;29;20692;-80
2023/02/12 01:17:30;;;;;;;12.27;8.63;;;7.70;99.90;;;;;;4928639;29;20205;-80
2023/02/12 01:19:58;;;;;;;13.20;9.07;;;7.70;99.90;;;;;;4928607;29;20245;-79
2023/02/12 01:22:26;;;;;;;14.80;9.37;;;7.70;99.90;;;;;;4928539;29;20610;-80
2023/02/12 01:24:53;;;;;;;16.83;9.53;;;7.60;99.90;;;;;;4928437;29;20285;-80
2023/02/12 01:27:20;;;;;;;16.03;10.27;;;7.60;99.90;;;;;;4928370;29;20255;-80
2023/02/12 01:29:46;;;;;;;21.17;11.20;;;7.60;99.90;;;;;;4928815;29;20698;-79
2023/02/12 01:32:13;;;;;;;16.67;10.37;;;7.60;99.90;;;;;;4928234;29;20213;-81
2023/02/12 01:34:42;;;;;;;17.70;10.87;;;7.60;99.90;;;;;;4927311;29;20214;-81
2023/02/12 01:37:09;;;;;;;15.10;10.57;;;7.50;99.90;;;;;;4927809;29;20675;-81
2023/02/12 01:39:36;;;;;;;17.17;9.87;;;7.50;99.90;;;;;;4927742;29;20238;-80
2023/02/12 01:42:04;;;;;;;16.40;11.07;;;7.50;99.90;;;;;;4928186;29;20237;-81
2023/02/12 01:44:33;;;;;;;13.87;9.57;;;7.50;99.90;;;;;;4927756;29;20336;-82
2023/02/12 01:47:02;;;;;;;14.87;9.80;;;7.40;99.90;;;;;;4927879;29;20234;-81
2023/02/12 01:49:35;;;;;;;16.80;9.63;;;7.40;99.90;;;;;;4927531;29;20241;-81
2023/02/12 01:52:08;;;;;;;15.67;11.00;;;7.30;99.90;;;;;;4930146;29;20248;-80
2023/02/12 01:54:37;;;;;;;16.60;10.33;;;7.30;99.90;;;;;;4929841;29;20321;-81
2023/02/12 01:57:06;;;;;;;16.30;9.87;;;7.20;99.90;;;;;;4930045;29;20233;-81
2023/02/12 01:59:35;;;;;;;14.33;9.20;;;7.20;99.90;;;;;;4930654;29;20216;-81
2023/02/12 02:02:03;;;;;;;16.73;10.53;;;7.10;99.90;;;;;;4940756;29;20775;-84
2023/02/12 02:04:33;;;;;;;17.17;9.77;;;7.10;99.90;;;;;;4947824;28;20300;-81
2023/02/12 02:07:05;;;;;;;15.27;10.43;;;7.00;99.90;;;;;;4948635;29;20235;-80
2023/02/12 02:09:35;;;;;;;17.70;10.30;;;7.00;99.90;;;;;;4946808;28;20203;-80
2023/02/12 02:14:48;;;;;;;16.13;9.60;;;6.90;99.90;;;;;;4949369;29;20303;-81
2023/02/12 02:17:40;;;;;;;18.67;11.30;;;6.90;99.90;;;;;;4946918;29;20205;-83
2023/02/12 02:20:50;;;;;;;16.97;10.23;;;6.80;99.90;;;;;;4929397;29;20666;-82
2023/02/12 02:23:39;;;;;;;17.27;10.30;;;6.80;99.90;;;;;;4928317;29;20214;-82
2023/02/12 02:26:31;;;;;;;15.47;9.77;;;6.80;99.90;;;;;;4926894;29;20225;-82
2023/02/12 02:29:32;;;;;;;19.77;11.40;;;6.70;99.90;;;;;;4936600;28;20345;-80
2023/02/12 02:32:06;;;;;;;19.10;11.80;;;6.70;99.90;;;;;;4946671;29;20297;-80
2023/02/12 02:34:42;;;;;;;15.60;10.47;;;6.70;99.90;;;;;;4941951;29;20197;-81
2023/02/12 02:37:18;;;;;;;14.27;9.43;;;6.60;99.90;;;;;;4927930;29;20204;-82
2023/02/12 02:39:50;;;;;;;17.17;10.77;;;6.60;99.90;;;;;;4926594;29;20909;-81
2023/02/12 02:42:23;;;;;;;18.07;11.43;;;6.50;99.90;;;;;;4928879;29;20875;-82
2023/02/12 02:44:53;;;;;;;17.83;10.23;;;6.50;99.90;;;;;;4928165;29;20585;-80
2023/02/12 02:47:26;;;;;;;16.33;10.17;;;6.50;99.90;;;;;;4939108;28;20267;-82
2023/02/12 02:49:57;;;;;;;18.87;11.07;;;6.40;99.90;;;;;;4947129;29;20583;-81
2023/02/12 02:52:28;;;;;;;20.80;12.67;;;6.40;99.90;;;;;;4946538;29;20327;-82
2023/02/12 02:55:01;;;;;;;21.37;12.20;;;6.40;99.90;;;;;;4932362;29;20516;-81
2023/02/12 02:57:35;;;;;;;19.27;12.30;;;6.40;99.90;;;;;;4928433;29;20265;-81
2023/02/12 03:00:08;;;;;;;16.80;10.63;;;6.40;99.90;;;;;;4927949;29;20212;-81
2023/02/12 03:02:39;;;;;;;20.27;12.00;;;6.40;99.90;;;;;;4927730;29;20210;-81
2023/02/12 03:05:10;;;;;;;16.83;10.00;;;6.40;99.90;;;;;;4928369;29;20210;-81
2023/02/12 03:07:41;;;;;;;18.60;10.87;;;6.40;99.90;;;;;;4927202;29;20240;-82
2023/02/12 03:10:14;;;;;;;17.50;11.00;;;6.40;99.90;;;;;;4927835;29;20230;-80
2023/02/12 03:12:46;;;;;;;17.93;10.63;;;6.40;99.90;;;;;;4926623;29;20198;-82
2023/02/12 03:15:20;;;;;;;16.60;10.87;;;6.40;99.90;;;;;;4927950;29;20837;-81
2023/02/12 03:17:49;;;;;;;17.40;11.70;;;6.40;99.90;;;;;;4931537;29;20202;-81
2023/02/12 03:20:20;;;;;;;17.40;10.87;;;6.40;99.90;;;;;;4931180;29;20214;-82
2023/02/12 03:22:51;;;;;;;16.93;10.37;;;6.40;99.90;;;;;;4931194;29;20554;-81
2023/02/12 03:25:23;;;;;;;16.23;10.10;;;6.40;99.90;;;;;;4931789;29;20193;-82
2023/02/12 03:27:56;;;;;;;20.17;11.83;;;6.40;99.90;;;;;;4931265;29;20234;-82
2023/02/12 03:30:29;;;;;;;17.77;10.63;;;6.40;99.90;;;;;;4932088;29;20220;-81
2023/02/12 03:33:07;;;;;;;18.37;11.67;;;6.50;99.90;;;;;;4931522;29;20212;-81
2023/02/12 03:35:41;;;;;;;15.73;10.43;;;6.50;99.90;;;;;;4931280;29;20206;-82
2023/02/12 03:38:17;;;;;;;15.93;10.50;;;6.50;99.90;;;;;;4932707;29;20227;-82
2023/02/12 03:40:51;;;;;;;18.20;11.40;;;6.50;99.90;;;;;;4932957;29;20206;-82
2023/02/12 03:43:23;;;;;;;20.73;11.83;;;6.50;99.90;;;;;;4931556;29;20474;-81
2023/02/12 03:45:55;;;;;;;18.13;11.37;;;6.60;99.90;;;;;;4931258;29;20206;-81
2023/02/12 03:48:28;;;;;;;15.83;10.23;;;6.60;99.90;;;;;;4930767;29;20560;-81
2023/02/12 03:50:58;;;;;;;17.80;10.03;;;6.60;99.90;;;;;;4931233;29;20205;-82
2023/02/12 03:53:27;;;;;;;17.13;11.17;;;6.60;99.90;;;;;;4929995;29;20246;-82
2023/02/12 03:56:01;;;;;;;13.83;9.73;;;6.70;99.90;;;;;;4929103;29;20320;-81
2023/02/12 03:58:32;;;;;;;15.87;10.03;;;6.60;99.90;;;;;;4930780;29;20205;-81
2023/02/12 04:01:03;;;;;;;16.90;10.37;;;6.70;99.90;;;;;;4929482;29;20296;-81
2023/02/12 04:03:32;;;;;;;18.57;10.43;;;6.70;99.90;;;;;;4928639;29;20210;-81
2023/02/12 04:05:59;;;;;;;19.70;10.97;;;6.70;99.90;;;;;;4928855;29;20214;-80
2023/02/12 04:08:27;;;;;;;16.57;10.37;;;6.70;99.90;;;;;;4929979;29;20914;-80
2023/02/12 04:11:06;;;;;;;19.87;11.20;;;6.70;99.90;;;;;;4930922;29;20202;-80
2023/02/12 04:13:42;;;;;;;18.43;11.33;;;6.70;99.90;;;;;;4930408;29;20212;-82
2023/02/12 04:16:22;;;;;;;20.50;11.77;;;6.80;99.90;;;;;;4935507;29;20244;-82
2023/02/12 04:18:51;;;;;;;18.60;11.23;;;6.80;99.90;;;;;;4930506;29;20293;-82
2023/02/12 04:21:33;;;;;;;16.53;10.50;;;6.80;99.90;;;;;;4928888;29;20225;-82
2023/02/12 04:24:08;;;;;;;22.07;12.90;;;6.80;99.90;;;;;;4928651;29;20265;-83
2023/02/12 04:26:39;;;;;;;16.40;11.13;;;6.80;99.90;;;;;;4929215;29;20229;-80
2023/02/12 04:29:13;;;;;;;15.63;11.10;;;6.80;99.90;;;;;;4930097;29;20213;-81
2023/02/12 04:31:46;;;;;;;16.43;10.73;;;6.80;99.90;;;;;;4929956;29;20521;-82
2023/02/12 04:34:18;;;;;;;16.43;10.90;;;6.80;99.90;;;;;;4930553;29;20231;-81
2023/02/12 04:36:51;;;;;;;14.60;9.97;;;6.90;99.90;;;;;;4929965;29;20324;-81
2023/02/12 04:39:22;;;;;;;14.00;9.70;;;6.80;99.90;;;;;;4928872;29;20229;-81
2023/02/12 04:41:49;;;;;;;19.37;11.13;;;6.90;99.90;;;;;;4928857;29;20381;-80
2023/02/12 04:44:18;;;;;;;17.83;11.83;;;6.90;99.90;;;;;;4940483;29;20312;-81
2023/02/12 04:46:45;;;;;;;15.63;10.50;;;6.90;99.90;;;;;;4948398;28;20341;-81
2023/02/12 04:49:16;;;;;;;13.20;9.37;;;6.90;99.90;;;;;;4948936;29;20206;-82
2023/02/12 04:51:44;;;;;;;16.67;10.60;;;6.90;99.90;;;;;;4944042;29;20640;-81
2023/02/12 04:54:11;;;;;;;15.63;9.90;;;6.90;99.90;;;;;;4928866;29;20618;-83
2023/02/12 04:56:38;;;;;;;18.53;10.50;;;6.90;99.90;;;;;;4928909;29;20314;-81
2023/02/12 04:59:05;;;;;;;17.03;11.43;;;7.00;99.90;;;;;;4928302;29;20316;-80
2023/02/12 05:01:34;;;;;;;18.47;11.23;;;6.90;99.90;;;;;;4928583;29;20224;-80
2023/02/12 05:04:01;;;;;;;17.43;10.97;;;7.00;99.90;;;;;;4929245;29;20201;-82
2023/02/12 05:06:30;;;;;;;17.30;11.17;;;7.00;99.90;;;;;;4928527;29;20254;-81
2023/02/12 05:08:57;;;;;;;16.33;9.17;;;7.00;99.90;;;;;;4929680;29;20202;-81
2023/02/12 05:11:24;;;;;;;15.90;10.77;;;7.00;99.90;;;;;;4929600;29;20293;-80
2023/02/12 05:13:52;;;;;;;16.33;10.37;;;7.00;99.90;;;;;;4929276;29;20198;-81
2023/02/12 05:16:20;;;;;;;17.47;10.90;;;7.00;99.90;;;;;;4929758;29;20345;-81
2023/02/12 05:18:47;;;;;;;16.07;10.87;;;7.00;99.90;;;;;;4929455;29;20206;-82
2023/02/12 05:21:15;;;;;;;12.73;9.63;;;7.00;99.90;;;;;;4929358;29;20357;-82
2023/02/12 05:23:43;;;;;;;13.83;8.93;;;7.00;99.90;;;;;;4939365;29;20212;-81
2023/02/12 05:26:16;;;;;;;13.33;8.97;;;7.00;99.90;;;;;;4948048;29;20608;-82
2023/02/12 05:28:43;;;;;;;13.17;8.17;;;7.00;99.90;;;;;;4937094;29;20218;-81
2023/02/12 05:31:14;;;;;;;10.80;7.20;;;7.00;99.90;;;;;;4926965;29;20220;-81
2023/02/12 05:33:43;;;;;;;10.53;6.50;;;7.00;99.90;;;;;;4927846;29;20217;-79
2023/02/12 05:36:12;;;;;;;11.23;7.00;;;7.00;99.90;;;;;;4928688;29;20213;-80
2023/02/12 05:38:39;;;;;;;9.57;6.67;;;7.00;99.90;;;;;;4927423;29;20216;-80
2023/02/12 05:41:09;;;;;;;8.73;5.40;;;7.10;99.90;;;;;;4927788;29;20217;-80
2023/02/12 05:43:36;;;;;;;12.27;6.77;;;7.10;99.90;;;;;;4928092;29;20491;-80
2023/02/12 05:46:06;;;;;;;7.60;5.47;;;7.10;99.90;;;;;;4928441;29;20250;-80
2023/02/12 05:48:34;;;;;;;9.27;5.93;;;7.10;99.90;;;;;;4927403;29;20238;-79
2023/02/12 05:51:06;;;;;;;7.07;4.70;;;7.10;99.90;;;;;;4928282;29;20241;-80
2023/02/12 05:53:33;;;;;;;7.87;4.57;;;7.10;99.90;;;;;;4927929;29;20267;-80
2023/02/12 05:56:10;;;;;;;9.70;5.00;;;7.10;99.90;;;;;;4927404;29;20653;-80
2023/02/12 05:58:37;;;;;;;11.17;5.50;;;7.10;99.90;;;;;;4927880;29;20313;-81
2023/02/12 06:01:10;;;;;;;9.77;5.07;;;7.10;99.90;;;;;;4928479;29;20302;-80
2023/02/12 06:03:37;;;;;;;10.17;5.77;;;7.10;99.90;;;;;;4927509;29;20296;-80
2023/02/12 06:06:05;;;;;;;8.17;4.93;;;7.20;99.90;;;;;;4928169;29;20301;-80
2023/02/12 06:08:32;;;;;;;7.93;4.53;;;7.10;99.90;;;;;;4928107;29;20233;-81
2023/02/12 06:11:02;;;;;;;8.97;5.20;;;7.10;99.90;;;;;;4928260;29;20237;-81
2023/02/12 06:13:30;;;;;;;10.60;5.27;;;7.20;99.90;;;;;;4927967;29;20205;-79
2023/02/12 06:15:58;;;;;;;8.20;4.80;;;7.20;99.90;;;;;;4928691;29;20210;-82
2023/02/12 06:18:25;;;;;;;6.43;4.50;;;7.20;99.90;;;;;;4947840;28;20244;-82
2023/02/12 06:20:53;;;;;;;9.27;5.23;;;7.20;99.90;;;;;;4949035;29;20346;-82
2023/02/12 06:23:20;;;;;;;6.07;4.60;;;7.20;99.90;;;;;;4947307;29;20209;-81
2023/02/12 06:25:47;;;;;;;8.13;5.17;;;7.20;99.90;;;;;;4930606;29;20301;-82
2023/02/12 06:28:15;;;;;;;7.20;4.70;;;7.30;99.90;;;;;;4931173;29;20232;-81
2023/02/12 06:30:44;;;;;;;6.80;4.13;;;7.30;99.90;;;;;;4930327;29;20234;-82
2023/02/12 06:33:10;;;;;;;6.33;4.80;;;7.20;99.90;;;;;;4930254;29;20194;-81
2023/02/12 06:35:38;;;;;;;7.27;3.60;;;7.30;99.90;;;;;;4929991;29;20252;-81
2023/02/12 06:38:06;;;;;;;9.90;4.80;;;7.30;99.90;;;;;;4930329;29;20236;-81
2023/02/12 06:40:33;;;;;;;9.03;4.20;;;7.30;99.90;;;;;;4930461;29;20220;-81
2023/02/12 06:43:00;;;;;;;6.33;3.70;;;7.30;99.90;;;;;;4930789;29;20691;-81
2023/02/12 06:45:27;;;;;;;6.17;3.83;;;7.30;99.90;;;;;;4929566;29;20229;-82
2023/02/12 06:47:55;;;;;;;5.03;3.43;;;7.30;99.90;;;;;;4929820;29;20251;-85
2023/02/12 06:50:22;;;;;;;5.50;3.63;;;7.30;99.90;;;;;;4929853;29;20288;-81
2023/02/12 06:52:49;;;;;;;7.63;3.80;;;7.30;99.90;;;;;;4929877;29;20244;-81
2023/02/12 06:55:16;;;;;;;11.27;4.87;;;7.30;99.90;;;;;;4929738;29;20221;-83
2023/02/12 06:57:43;;;;;;;8.63;4.87;;;7.30;99.90;;;;;;4928288;29;20198;-80
2023/02/12 07:00:11;;;;;;;5.87;3.60;;;7.30;99.90;;;;;;4927009;29;20210;-82
2023/02/12 07:02:38;;;;;;;5.30;3.60;;;7.30;99.90;;;;;;4927301;29;20214;-82
2023/02/12 07:05:07;;;;;;;7.80;4.23;;;7.40;99.90;;;;;;4927054;29;20325;-80
2023/02/12 07:07:34;;;;;;;5.80;3.63;;;7.40;99.90;;;;;;4928217;29;20232;-83
2023/02/12 07:10:01;;;;;;;8.30;3.93;;;7.40;99.90;;;;;;4946578;28;20208;-80
2023/02/12 07:12:28;;;;;;;7.67;3.73;;;7.40;99.90;;;;;;4940014;29;20216;-80
2023/02/12 07:14:54;;;;;;;6.07;3.23;;;7.40;99.90;;;;;;4927999;29;20927;-81
2023/02/12 07:17:21;;;;;;;8.20;4.90;;;7.40;99.90;;;;;;4928981;29;20233;-81
2023/02/12 07:19:48;;;;;;;6.17;4.23;;;7.40;99.90;;;;;;4927785;29;20233;-81
2023/02/12 07:22:17;;;;;;;4.83;3.33;;;7.40;99.90;;;;;;4927562;29;20256;-80
2023/02/12 07:24:44;;;;;;;4.40;3.07;;;7.40;99.90;;;;;;4928023;29;20289;-81
2023/02/12 07:27:11;;;;;;;5.40;3.40;;;7.50;99.90;;;;;;4927428;29;20222;-81
2023/02/12 07:29:38;;;;;;;5.40;3.10;;;7.40;99.90;;;;;;4927795;29;20233;-80
2023/02/12 07:32:05;;;;;;;5.10;3.47;;;7.50;99.90;;;;;;4944293;28;20626;-82
2023/02/12 07:34:32;;;;;;;8.27;3.90;;;7.50;99.90;;;;;;4946463;28;20197;-81
2023/02/12 07:36:59;;;;;;;3.53;2.63;;;7.50;99.90;;;;;;4947584;29;20198;-81
2023/02/12 07:39:28;;;;;;;5.43;3.50;;;7.50;99.90;;;;;;4933807;29;20690;-80
2023/02/12 07:41:56;;;;;;;4.27;3.20;;;7.50;99.90;;;;;;4928441;29;20209;-82
2023/02/12 07:44:24;;;;;;;5.53;3.63;;;7.50;99.90;;;;;;4944721;29;20224;-81
2023/02/12 07:46:51;;;;;;;7.63;3.60;;;7.50;99.90;;;;;;4928655;29;20312;-86
2023/02/12 07:49:20;;;;;;;6.40;3.17;;;7.50;99.90;;;;;;4927975;29;20210;-82
2023/02/12 07:51:48;;;;;;;5.07;2.87;;;7.60;99.90;;;;;;4939133;29;20213;-81
2023/02/12 07:54:15;;;;;;;4.80;3.13;;;7.60;99.90;;;;;;4947599;29;20255;-81
2023/02/12 07:56:45;;;;;;;5.13;3.40;;;7.60;99.90;;;;;;4946761;29;20209;-81
2023/02/12 07:59:14;;;;;;;4.80;3.33;;;7.60;99.90;;;;;;4935014;29;20652;-81
2023/02/12 08:01:43;;;;;;;6.50;5.00;;;7.70;99.90;;;;;;4927819;29;20216;-81
2023/02/12 08:04:13;;;;;;;6.47;4.17;;;7.70;99.90;;;;;;4950302;29;20205;-81
2023/02/12 08:06:42;;;;;;;4.77;3.77;;;7.70;99.90;;;;;;4950576;29;20209;-81
2023/02/12 08:09:12;;;;;;;4.87;3.73;;;7.70;99.90;;;;;;4942489;29;20925;-80
2023/02/12 08:11:40;;;;;;;7.00;3.63;;;7.70;99.90;;;;;;4942210;28;20213;-82
2023/02/12 08:14:12;;;;;;;4.33;3.37;;;7.80;99.90;;;;;;4948983;29;20767;-81
2023/02/12 08:16:40;;;;;;;4.70;2.97;;;7.80;99.90;;;;;;4943157;29;20217;-81
2023/02/12 08:19:08;;;;;;;6.00;4.00;;;7.80;99.90;;;;;;4944931;29;20300;-82
2023/02/12 08:21:35;;;;;;;4.33;2.83;;;7.80;99.90;;;;;;4943807;29;20243;-81
2023/02/12 08:24:02;;;;;;;6.90;3.07;;;7.90;99.90;;;;;;4951000;29;20324;-82
2023/02/12 08:26:32;;;;;;;3.03;2.70;;;7.90;99.90;;;;;;4941111;29;20246;-82
2023/02/12 08:29:02;;;;;;;5.37;2.60;;;7.90;99.90;;;;;;4931533;29;20222;-82
2023/02/12 08:31:32;;;;;;;3.73;2.77;;;7.90;99.90;;;;;;4934437;29;20206;-81
2023/02/12 08:34:01;;;;;;;4.37;2.90;;;8.00;99.90;;;;;;4931386;29;20210;-82
2023/02/12 08:36:30;;;;;;;3.83;2.73;;;8.00;99.90;;;;;;4931197;29;20236;-83
2023/02/12 08:38:58;;;;;;;3.87;3.10;;;8.10;99.90;;;;;;4950085;29;20294;-82
2023/02/12 08:41:27;;;;;;;6.93;4.50;;;8.10;99.90;;;;;;4940801;29;20212;-81
2023/02/12 08:43:58;;;;;;;5.90;3.10;;;8.10;99.90;;;;;;4931083;29;20197;-81
2023/02/12 08:46:26;;;;;;;3.47;3.10;;;8.10;99.90;;;;;;4930776;29;20206;-80
2023/02/12 08:48:56;;;;;;;4.37;2.33;;;8.20;99.90;;;;;;4930663;29;20634;-81
2023/02/12 08:51:25;;;;;;;3.83;2.60;;;8.20;99.90;;;;;;4930502;29;20494;-81
2023/02/12 08:53:53;;;;;;;3.60;2.60;;;8.20;99.90;;;;;;4930502;29;20947;-82
2023/02/12 08:56:20;;;;;;;4.67;3.93;;;8.30;99.90;;;;;;4929863;29;20356;-82
2023/02/12 08:58:48;;;;;;;5.87;3.63;;;8.40;99.90;;;;;;4929014;29;20209;-80
2023/02/12 09:01:17;;;;;;;5.67;3.70;;;8.40;99.90;;;;;;4930352;29;20699;-85
2023/02/12 09:03:45;;;;;;;6.40;5.47;;;8.50;99.90;;;;;;4930454;29;20312;-81
2023/02/12 09:06:14;;;;;;;5.60;4.83;;;8.60;99.90;;;;;;4929929;29;20817;-81
2023/02/12 09:08:42;;;;;;;5.77;5.13;;;8.60;99.90;;;;;;4929115;29;20233;-82
2023/02/12 09:11:11;;;;;;;6.67;5.57;;;8.70;99.90;;;;;;4927744;29;20612;-82
2023/02/12 09:13:39;;;;;;;8.37;6.03;;;8.70;99.90;;;;;;4927110;29;20596;-82
2023/02/12 09:16:07;;;;;;;7.10;5.87;;;8.80;99.90;;;;;;4929448;29;20198;-81
2023/02/12 09:18:34;;;;;;;6.20;5.60;;;8.80;99.90;;;;;;4938335;29;20211;-81
2023/02/12 09:21:03;;;;;;;8.00;5.97;;;8.80;99.90;;;;;;4949068;29;20296;-82
2023/02/12 09:23:32;;;;;;;8.27;6.23;;;8.90;99.90;;;;;;4943846;29;20627;-82
2023/02/12 09:25:59;;;;;;;5.63;5.13;;;8.90;99.90;;;;;;4929907;29;20206;-80
2023/02/12 09:28:26;;;;;;;5.93;4.50;;;8.80;99.90;;;;;;4930077;29;20230;-83
2023/02/12 09:30:53;;;;;;;4.43;3.53;;;8.80;99.90;;;;;;4929327;29;20236;-82
2023/02/12 09:33:21;;;;;;;3.50;3.20;;;8.90;99.90;;;;;;4928834;29;20795;-82
2023/02/12 09:35:49;;;;;;;4.47;3.73;;;8.90;99.90;;;;;;4929661;29;20513;-80
2023/02/12 09:38:16;;;;;;;4.40;3.57;;;8.90;99.90;;;;;;4928887;29;20216;-82
2023/02/12 09:41:10;;;;;;;6.63;4.43;;;8.90;99.90;;;;;;4929300;29;20403;-81
2023/02/12 09:43:44;;;;;;;7.47;6.20;;;8.90;99.90;;;;;;4944901;28;20303;-82
2023/02/12 09:46:19;;;;;;;7.93;5.83;;;9.00;99.90;;;;;;4959255;28;20217;-82
2023/02/12 09:48:57;;;;;;;6.57;5.40;;;9.10;99.90;;;;;;4938813;28;20276;-82
2023/02/12 09:51:25;;;;;;;5.57;5.00;;;9.10;99.90;;;;;;4946501;28;20863;-80
2023/02/12 09:54:00;;;;;;;4.87;4.43;;;9.10;99.90;;;;;;4933978;28;20236;-81
2023/02/12 09:56:29;;;;;;;6.67;5.07;;;9.10;99.90;;;;;;4948627;28;20218;-81
2023/02/12 09:58:59;;;;;;;7.37;5.23;;;9.10;99.90;;;;;;4936934;28;20210;-81
2023/02/12 10:01:28;;;;;;;6.07;5.47;;;9.10;99.90;;;;;;4958191;28;20197;-81
2023/02/12 10:03:55;;;;;;;5.97;5.27;;;9.10;99.90;;;;;;4929449;29;20885;-81
2023/02/12 10:06:26;;;;;;;10.00;7.47;;;9.20;99.90;;;;;;4948283;28;20212;-80
2023/02/12 10:09:02;;;;;;;13.80;11.00;;;9.20;99.90;;;;;;4935699;28;20217;-80
2023/02/12 10:12:00;;;;;;;8.00;6.03;;;9.30;99.90;;;;;;4949455;28;20312;-80
2023/02/12 10:14:54;;;;;;;6.30;5.70;;;9.20;99.90;;;;;;4945717;28;20583;-80
2023/02/12 10:17:33;;;;;;;7.00;6.30;;;9.30;99.90;;;;;;4941640;28;20216;-82
2023/02/12 10:20:38;;;;;;;6.87;5.67;;;9.20;99.90;;;;;;4928109;29;20198;-81
2023/02/12 10:23:33;;;;;;;5.37;4.83;;;9.20;99.90;;;;;;4909198;28;20340;-80
2023/02/12 10:26:11;;;;;;;7.40;6.10;;;9.20;99.90;;;;;;4933323;28;20209;-82
2023/02/12 10:28:42;;;;;;;7.20;5.80;;;9.30;99.90;;;;;;4946204;28;20217;-82
2023/02/12 10:31:16;;;;;;;6.27;4.87;;;9.30;99.90;;;;;;4939219;28;20213;-83
2023/02/12 10:33:47;;;;;;;6.50;5.27;;;9.30;99.90;;;;;;4947851;28;20201;-83
2023/02/12 10:36:25;;;;;;;6.43;5.53;;;9.30;99.90;;;;;;4946338;29;20223;-82
2023/02/12 10:38:59;;;;;;;7.67;6.63;;;9.40;99.90;;;;;;4950336;28;20201;-81
2023/02/12 10:41:28;;;;;;;5.80;5.13;;;9.40;99.90;;;;;;4937054;29;20300;-82
2023/02/12 10:43:57;;;;;;;6.40;5.30;;;9.40;99.90;;;;;;4938926;29;20847;-82
2023/02/12 10:46:24;;;;;;;8.70;7.10;;;9.40;99.90;;;;;;4927437;29;20292;-80
2023/02/12 10:48:53;;;;;;;9.20;6.60;;;9.50;99.90;;;;;;4928106;29;20724;-82
2023/02/12 10:52:00;;;;;;;6.57;5.97;;;9.50;99.90;;;;;;4927431;29;20213;-83
2023/02/12 10:54:42;;;;;;;6.40;5.47;;;9.50;99.90;;;;;;4919222;29;20206;-79
2023/02/12 10:57:17;;;;;;;7.77;6.97;;;9.50;99.90;;;;;;4927170;29;20202;-81
2023/02/12 10:59:48;;;;;;;11.67;9.00;;;9.50;99.90;;;;;;4928263;29;20214;-80
2023/02/12 11:02:27;;;;;;;10.43;8.90;;;9.60;99.90;;;;;;4927288;29;20517;-82
2023/02/12 11:04:56;;;;;;;9.47;8.47;;;9.60;99.90;;;;;;4926401;29;20204;-82
2023/02/12 11:07:25;;;;;;;8.47;7.53;;;9.60;99.90;;;;;;4926595;29;20206;-81
2023/02/12 11:09:53;;;;;;;9.80;7.60;;;9.60;99.90;;;;;;4926758;29;20293;-81
2023/02/12 11:12:33;;;;;;;10.93;8.20;;;9.70;99.90;;;;;;4926997;29;20261;-81
2023/02/12 11:15:07;;;;;;;10.47;9.27;;;9.70;99.90;;;;;;4927620;29;20198;-81
2023/02/12 11:17:37;;;;;;;10.20;8.13;;;9.70;99.90;;;;;;4927009;29;20614;-81
2023/02/12 11:20:19;;;;;;;12.50;9.60;;;9.80;99.90;;;;;;4927147;29;20210;-83
2023/02/12 11:22:54;;;;;;;10.03;8.23;;;9.80;99.90;;;;;;4927335;29;20205;-81
2023/02/12 11:25:23;;;;;;;8.83;7.93;;;9.80;99.90;;;;;;4927053;29;20216;-82
2023/02/12 11:28:16;;;;;;;9.33;8.13;;;9.80;99.90;;;;;;4927378;29;20214;-80
2023/02/12 11:30:52;;;;;;;9.83;8.20;;;9.70;99.90;;;;;;4928961;28;20240;-80
2023/02/12 11:33:25;;;;;;;13.17;9.07;;;9.80;99.90;;;;;;4945919;29;20284;-82
2023/02/12 11:35:55;;;;;;;11.10;8.27;;;9.80;99.90;;;;;;4946901;28;20212;-81
2023/02/12 11:38:35;;;;;;;10.33;8.70;;;9.90;99.90;;;;;;4950625;29;20201;-81
2023/02/12 11:41:23;;;;;;;12.63;8.80;;;9.90;99.90;;;;;;4929490;29;20206;-82
2023/02/12 11:43:51;;;;;;;11.30;9.57;;;9.90;99.90;;;;;;4930122;29;20292;-80
2023/02/12 11:46:23;;;;;;;11.23;9.83;;;9.90;99.90;;;;;;4930215;29;20209;-80
2023/02/12 11:48:52;;;;;;;11.40;9.27;;;9.90;99.90;;;;;;4930526;29;20284;-81
2023/02/12 11:51:22;;;;;;;11.30;8.83;;;9.90;99.90;;;;;;4930598;29;20706;-81
2023/02/12 11:53:52;;;;;;;9.77;8.27;;;9.90;99.90;;;;;;4930122;29;20930;-81
2023/02/12 11:56:20;;;;;;;10.20;8.33;;;9.90;99.90;;;;;;4930627;29;20611;-82
2023/02/12 11:58:48;;;;;;;8.83;7.47;;;9.90;99.90;;;;;;4929910;29;20210;-81
2023/02/12 12:01:22;;;;;;;11.50;7.80;;;9.90;99.90;;;;;;4929592;29;20216;-82
2023/02/12 12:03:58;;;;;;;10.00;7.60;;;9.90;99.90;;;;;;4930557;29;20194;-82
2023/02/12 12:06:34;;;;;;;8.70;7.30;;;9.90;99.90;;;;;;4929608;29;20213;-80
2023/02/12 12:09:09;;;;;;;9.37;8.30;;;9.90;99.90;;;;;;4929449;29;20222;-82
2023/02/12 12:11:47;;;;;;;8.10;7.30;;;9.90;99.90;;;;;;4929804;29;20206;-82
2023/02/12 12:14:20;;;;;;;9.63;8.40;;;9.90;99.90;;;;;;4929898;29;20223;-82
2023/02/12 12:19:54;;;;;;;9.50;8.30;;;10.00;99.90;;;;;;4943732;29;20208;-82
2023/02/12 12:22:42;;;;;;;11.90;9.90;;;10.00;99.90;;;;;;4949222;28;20260;-81
2023/02/12 12:25:18;;;;;;;12.77;9.43;;;10.00;99.90;;;;;;4948918;29;20213;-81
2023/02/12 12:28:04;;;;;;;13.90;10.30;;;10.00;99.90;;;;;;4946838;29;20222;-82
2023/02/12 12:30:58;;;;;;;12.83;9.80;;;9.90;99.90;;;;;;4947288;29;20268;-82
2023/02/12 12:33:35;;;;;;;12.90;9.93;;;10.00;99.90;;;;;;4926979;29;20342;-83
2023/02/12 12:36:42;;;;;;;13.13;9.63;;;10.00;99.90;;;;;;4928393;29;20501;-81
2023/02/12 12:39:19;;;;;;;10.97;9.53;;;10.00;99.90;;;;;;4913010;29;20673;-81
2023/02/12 12:41:57;;;;;;;13.13;10.10;;;10.00;99.90;;;;;;4949713;29;20303;-81
2023/02/12 12:44:35;;;;;;;15.63;11.63;;;10.00;99.90;;;;;;4945947;29;20204;-81
2023/02/12 12:47:17;;;;;;;12.93;10.23;;;10.10;99.90;;;;;;4929979;29;20348;-81
2023/02/12 12:50:00;;;;;;;10.83;9.50;;;10.10;99.90;;;;;;4943997;29;20225;-81
2023/02/12 12:53:04;;;;;;;14.63;12.03;;;10.10;99.90;;;;;;4948404;28;20766;-82
2023/02/12 12:55:59;;;;;;;14.13;12.40;;;10.10;99.90;;;;;;4929547;29;20202;-81
2023/02/12 12:58:38;;;;;;;14.23;11.67;;;10.10;99.90;;;;;;4926795;29;20198;-83
2023/02/12 13:01:42;;;;;;;11.83;10.43;;;10.10;99.90;;;;;;4929383;29;20225;-81
2023/02/12 13:04:41;;;;;;;10.70;8.87;;;10.00;99.90;;;;;;4928801;29;20209;-82
2023/02/12 13:07:18;;;;;;;14.67;12.30;;;10.00;99.90;;;;;;4908048;29;20208;-83
2023/02/12 13:09:57;;;;;;;15.87;13.10;;;10.00;99.90;;;;;;4927411;29;20218;-83
2023/02/12 13:12:39;;;;;;;13.20;11.10;;;10.00;99.90;;;;;;4927448;29;20213;-81
2023/02/12 13:15:15;;;;;;;15.50;12.77;;;10.00;99.90;;;;;;4928990;29;20213;-81
2023/02/12 13:17:49;;;;;;;13.03;11.03;;;10.00;99.90;;;;;;4928864;29;20255;-81